sensor_id;sensor_type;location;lat;lon;timestamp;temperature;humidity
652;DHT22;310;48.490;9.200;2023-06-01T00:02:15;19.40;30.20
652;DHT22;310;48.490;9.200;2023-06-01T00:04:40;19.30;30.70
652;DHT22;310;48.490;9.200;2023-06-01T00:07:09;19.30;30.20
652;DHT22;310;48.490;9.200;2023-06-01T00:09:36;19.30;30.10
652;DHT22;310;48.490;9.200;2023-06-01T00:12:02;19.30;30.60
652;DHT22;310;48.490;9.200;2023-06-01T00:14:28;18.80;28.90
652;DHT22;310;48.490;9.200;2023-06-01T00:16:54;18.70;29.50
652;DHT22;310;48.490;9.200;2023-06-01T00:19:22;18.50;31.30
652;DHT22;310;48.490;9.200;2023-06-01T00:21:47;18.80;30.80
652;DHT22;310;48.490;9.200;2023-06-01T00:24:13;19.00;30.70
652;DHT22;310;48.490;9.200;2023-06-01T00:26:39;19.00;31.00
652;DHT22;310;48.490;9.200;2023-06-01T00:29:04;19.00;30.50
652;DHT22;310;48.490;9.200;2023-06-01T00:31:30;19.00;31.00
652;DHT22;310;48.490;9.200;2023-06-01T00:33:55;18.90;32.10
652;DHT22;310;48.490;9.200;2023-06-01T00:36:21;18.80;31.70
652;DHT22;310;48.490;9.200;2023-06-01T00:38:47;18.90;31.70
652;DHT22;310;48.490;9.200;2023-06-01T00:41:12;18.90;31.90
652;DHT22;310;48.490;9.200;2023-06-01T00:43:38;19.00;31.70
652;DHT22;310;48.490;9.200;2023-06-01T00:46:04;19.00;31.90
652;DHT22;310;48.490;9.200;2023-06-01T00:48:30;18.90;32.20
652;DHT22;310;48.490;9.200;2023-06-01T00:50:56;18.80;32.10
652;DHT22;310;48.490;9.200;2023-06-01T00:53:24;18.80;32.30
652;DHT22;310;48.490;9.200;2023-06-01T00:55:50;18.80;31.40
652;DHT22;310;48.490;9.200;2023-06-01T00:58:16;18.70;32.00
652;DHT22;310;48.490;9.200;2023-06-01T01:00:41;18.80;31.80
652;DHT22;310;48.490;9.200;2023-06-01T01:03:07;18.60;31.50
652;DHT22;310;48.490;9.200;2023-06-01T01:05:35;18.60;32.40
652;DHT22;310;48.490;9.200;2023-06-01T01:08:28;18.50;32.00
652;DHT22;310;48.490;9.200;2023-06-01T01:11:02;18.50;33.00
652;DHT22;310;48.490;9.200;2023-06-01T01:13:47;18.50;32.40
652;DHT22;310;48.490;9.200;2023-06-01T01:16:27;18.40;32.50
652;DHT22;310;48.490;9.200;2023-06-01T01:19:04;18.50;32.40
652;DHT22;310;48.490;9.200;2023-06-01T01:21:37;18.30;33.30
652;DHT22;310;48.490;9.200;2023-06-01T01:24:42;18.40;32.70
652;DHT22;310;48.490;9.200;2023-06-01T01:30:03;18.30;33.10
652;DHT22;310;48.490;9.200;2023-06-01T01:32:33;18.50;33.20
652;DHT22;310;48.490;9.200;2023-06-01T01:35:01;18.30;33.20
652;DHT22;310;48.490;9.200;2023-06-01T01:37:27;18.40;32.70
652;DHT22;310;48.490;9.200;2023-06-01T01:39:53;18.30;33.20
652;DHT22;310;48.490;9.200;2023-06-01T01:42:19;18.20;33.00
652;DHT22;310;48.490;9.200;2023-06-01T01:44:45;18.10;33.90
652;DHT22;310;48.490;9.200;2023-06-01T01:49:46;18.10;33.20
652;DHT22;310;48.490;9.200;2023-06-01T01:52:26;18.00;33.70
652;DHT22;310;48.490;9.200;2023-06-01T01:54:55;18.10;32.90
652;DHT22;310;48.490;9.200;2023-06-01T01:57:22;18.00;33.70
652;DHT22;310;48.490;9.200;2023-06-01T01:59:49;17.90;33.60
652;DHT22;310;48.490;9.200;2023-06-01T02:02:15;17.80;35.10
652;DHT22;310;48.490;9.200;2023-06-01T02:04:42;17.70;34.50
652;DHT22;310;48.490;9.200;2023-06-01T02:07:09;17.70;33.80
652;DHT22;310;48.490;9.200;2023-06-01T02:09:35;17.70;34.80
652;DHT22;310;48.490;9.200;2023-06-01T02:12:01;17.60;34.00
652;DHT22;310;48.490;9.200;2023-06-01T02:14:28;17.50;33.20
652;DHT22;310;48.490;9.200;2023-06-01T02:16:54;17.60;34.10
652;DHT22;310;48.490;9.200;2023-06-01T02:19:20;17.60;34.70
652;DHT22;310;48.490;9.200;2023-06-01T02:21:45;17.50;34.60
652;DHT22;310;48.490;9.200;2023-06-01T02:24:11;17.40;36.50
652;DHT22;310;48.490;9.200;2023-06-01T02:26:38;17.40;35.00
652;DHT22;310;48.490;9.200;2023-06-01T02:29:04;17.50;35.00
652;DHT22;310;48.490;9.200;2023-06-01T02:31:39;17.50;34.80
652;DHT22;310;48.490;9.200;2023-06-01T02:34:05;17.50;36.30
652;DHT22;310;48.490;9.200;2023-06-01T02:36:30;17.50;34.50
652;DHT22;310;48.490;9.200;2023-06-01T02:38:57;17.50;34.50
652;DHT22;310;48.490;9.200;2023-06-01T02:41:23;17.50;34.80
652;DHT22;310;48.490;9.200;2023-06-01T02:43:49;17.30;35.40
652;DHT22;310;48.490;9.200;2023-06-01T02:46:18;17.30;35.90
652;DHT22;310;48.490;9.200;2023-06-01T02:48:45;17.30;35.50
652;DHT22;310;48.490;9.200;2023-06-01T02:51:11;17.40;36.10
652;DHT22;310;48.490;9.200;2023-06-01T02:53:42;17.20;36.50
652;DHT22;310;48.490;9.200;2023-06-01T02:56:08;17.20;35.70
652;DHT22;310;48.490;9.200;2023-06-01T02:58:33;17.40;35.70
652;DHT22;310;48.490;9.200;2023-06-01T03:00:59;17.40;35.60
652;DHT22;310;48.490;9.200;2023-06-01T03:03:28;17.50;35.60
652;DHT22;310;48.490;9.200;2023-06-01T03:05:54;17.60;35.20
652;DHT22;310;48.490;9.200;2023-06-01T03:08:21;17.40;34.60
652;DHT22;310;48.490;9.200;2023-06-01T03:10:46;17.40;35.60
652;DHT22;310;48.490;9.200;2023-06-01T03:13:12;17.20;35.30
652;DHT22;310;48.490;9.200;2023-06-01T03:15:38;17.30;35.90
652;DHT22;310;48.490;9.200;2023-06-01T03:18:04;17.30;36.10
652;DHT22;310;48.490;9.200;2023-06-01T03:20:31;17.10;37.40
652;DHT22;310;48.490;9.200;2023-06-01T03:22:57;17.10;35.70
652;DHT22;310;48.490;9.200;2023-06-01T03:25:22;17.10;36.60
652;DHT22;310;48.490;9.200;2023-06-01T03:27:50;17.10;36.30
652;DHT22;310;48.490;9.200;2023-06-01T03:30:16;17.00;35.90
652;DHT22;310;48.490;9.200;2023-06-01T03:32:43;17.00;37.10
652;DHT22;310;48.490;9.200;2023-06-01T03:35:13;16.90;37.30
652;DHT22;310;48.490;9.200;2023-06-01T03:37:40;17.00;37.10
652;DHT22;310;48.490;9.200;2023-06-01T03:40:07;17.10;36.40
652;DHT22;310;48.490;9.200;2023-06-01T03:42:44;17.00;35.70
652;DHT22;310;48.490;9.200;2023-06-01T03:45:11;17.00;36.00
652;DHT22;310;48.490;9.200;2023-06-01T03:47:37;16.60;36.40
652;DHT22;310;48.490;9.200;2023-06-01T03:50:04;16.80;36.70
652;DHT22;310;48.490;9.200;2023-06-01T03:52:31;16.80;35.60
652;DHT22;310;48.490;9.200;2023-06-01T03:54:58;16.40;35.00
652;DHT22;310;48.490;9.200;2023-06-01T03:57:24;16.40;36.40
652;DHT22;310;48.490;9.200;2023-06-01T03:59:50;16.50;35.80
652;DHT22;310;48.490;9.200;2023-06-01T04:02:17;16.50;36.90
652;DHT22;310;48.490;9.200;2023-06-01T04:04:44;16.70;36.80
652;DHT22;310;48.490;9.200;2023-06-01T04:07:13;16.60;35.90
652;DHT22;310;48.490;9.200;2023-06-01T04:09:48;16.30;36.60
652;DHT22;310;48.490;9.200;2023-06-01T04:12:14;16.00;37.90
652;DHT22;310;48.490;9.200;2023-06-01T04:14:40;16.40;37.80
652;DHT22;310;48.490;9.200;2023-06-01T04:17:06;16.30;37.20
652;DHT22;310;48.490;9.200;2023-06-01T04:19:33;16.50;37.10
652;DHT22;310;48.490;9.200;2023-06-01T04:21:59;16.70;36.30
652;DHT22;310;48.490;9.200;2023-06-01T04:24:25;16.90;35.80
652;DHT22;310;48.490;9.200;2023-06-01T04:26:51;17.00;35.60
652;DHT22;310;48.490;9.200;2023-06-01T04:29:17;17.00;35.20
652;DHT22;310;48.490;9.200;2023-06-01T04:31:45;17.10;35.10
652;DHT22;310;48.490;9.200;2023-06-01T04:34:11;17.30;35.20
652;DHT22;310;48.490;9.200;2023-06-01T04:36:37;17.60;32.80
652;DHT22;310;48.490;9.200;2023-06-01T04:39:04;17.60;34.30
652;DHT22;310;48.490;9.200;2023-06-01T04:41:32;17.40;32.40
652;DHT22;310;48.490;9.200;2023-06-01T04:43:58;17.00;33.80
652;DHT22;310;48.490;9.200;2023-06-01T04:46:24;17.20;34.40
652;DHT22;310;48.490;9.200;2023-06-01T04:48:54;17.40;34.10
652;DHT22;310;48.490;9.200;2023-06-01T04:51:23;17.50;35.10
652;DHT22;310;48.490;9.200;2023-06-01T04:53:52;17.60;36.00
652;DHT22;310;48.490;9.200;2023-06-01T04:56:22;17.60;35.10
652;DHT22;310;48.490;9.200;2023-06-01T04:58:53;17.70;35.60
652;DHT22;310;48.490;9.200;2023-06-01T05:01:19;17.70;35.10
652;DHT22;310;48.490;9.200;2023-06-01T05:03:46;17.70;35.70
652;DHT22;310;48.490;9.200;2023-06-01T05:06:13;17.80;34.20
652;DHT22;310;48.490;9.200;2023-06-01T05:08:39;17.90;34.90
652;DHT22;310;48.490;9.200;2023-06-01T05:11:06;18.30;32.60
652;DHT22;310;48.490;9.200;2023-06-01T05:13:33;18.30;34.50
652;DHT22;310;48.490;9.200;2023-06-01T05:15:59;18.40;33.30
652;DHT22;310;48.490;9.200;2023-06-01T05:18:25;18.40;35.00
652;DHT22;310;48.490;9.200;2023-06-01T05:20:50;18.40;34.40
652;DHT22;310;48.490;9.200;2023-06-01T05:23:16;18.60;31.90
652;DHT22;310;48.490;9.200;2023-06-01T05:25:42;18.90;31.30
652;DHT22;310;48.490;9.200;2023-06-01T05:28:08;18.90;33.00
652;DHT22;310;48.490;9.200;2023-06-01T05:30:33;18.90;33.20
652;DHT22;310;48.490;9.200;2023-06-01T05:32:59;19.10;32.90
652;DHT22;310;48.490;9.200;2023-06-01T05:35:25;19.00;30.60
652;DHT22;310;48.490;9.200;2023-06-01T05:37:50;18.50;31.30
652;DHT22;310;48.490;9.200;2023-06-01T05:40:16;18.70;32.30
652;DHT22;310;48.490;9.200;2023-06-01T05:42:42;18.40;31.60
652;DHT22;310;48.490;9.200;2023-06-01T05:45:08;18.70;32.30
652;DHT22;310;48.490;9.200;2023-06-01T05:47:34;19.00;30.80
652;DHT22;310;48.490;9.200;2023-06-01T05:50:00;18.90;31.30
652;DHT22;310;48.490;9.200;2023-06-01T05:52:26;18.90;29.80
652;DHT22;310;48.490;9.200;2023-06-01T05:54:51;18.70;31.10
652;DHT22;310;48.490;9.200;2023-06-01T05:57:21;19.00;31.10
652;DHT22;310;48.490;9.200;2023-06-01T05:59:47;18.90;31.20
652;DHT22;310;48.490;9.200;2023-06-01T06:02:13;18.70;31.30
652;DHT22;310;48.490;9.200;2023-06-01T06:04:40;18.90;32.30
652;DHT22;310;48.490;9.200;2023-06-01T06:07:06;19.40;31.50
652;DHT22;310;48.490;9.200;2023-06-01T06:09:31;19.00;29.90
652;DHT22;310;48.490;9.200;2023-06-01T06:11:57;18.20;29.80
652;DHT22;310;48.490;9.200;2023-06-01T06:14:23;18.50;30.40
652;DHT22;310;48.490;9.200;2023-06-01T06:16:49;19.20;31.10
652;DHT22;310;48.490;9.200;2023-06-01T06:19:15;19.30;29.80
652;DHT22;310;48.490;9.200;2023-06-01T06:21:43;19.60;28.80
652;DHT22;310;48.490;9.200;2023-06-01T06:24:08;19.20;28.60
652;DHT22;310;48.490;9.200;2023-06-01T06:26:34;18.70;29.40
652;DHT22;310;48.490;9.200;2023-06-01T06:29:00;19.10;29.40
652;DHT22;310;48.490;9.200;2023-06-01T06:31:26;18.80;29.70
652;DHT22;310;48.490;9.200;2023-06-01T06:33:52;18.80;29.80
652;DHT22;310;48.490;9.200;2023-06-01T06:36:17;19.60;31.40
652;DHT22;310;48.490;9.200;2023-06-01T06:38:44;20.10;29.20
652;DHT22;310;48.490;9.200;2023-06-01T06:41:10;20.20;28.10
652;DHT22;310;48.490;9.200;2023-06-01T06:43:35;20.00;28.20
652;DHT22;310;48.490;9.200;2023-06-01T06:46:01;20.00;27.60
652;DHT22;310;48.490;9.200;2023-06-01T06:48:27;19.80;27.80
652;DHT22;310;48.490;9.200;2023-06-01T06:50:53;19.90;27.60
652;DHT22;310;48.490;9.200;2023-06-01T06:53:18;19.80;27.50
652;DHT22;310;48.490;9.200;2023-06-01T06:55:44;19.70;28.00
652;DHT22;310;48.490;9.200;2023-06-01T06:58:10;19.50;28.20
652;DHT22;310;48.490;9.200;2023-06-01T07:00:36;19.90;27.80
652;DHT22;310;48.490;9.200;2023-06-01T07:03:02;19.90;27.60
652;DHT22;310;48.490;9.200;2023-06-01T07:05:28;19.70;27.80
652;DHT22;310;48.490;9.200;2023-06-01T07:07:54;19.90;28.20
652;DHT22;310;48.490;9.200;2023-06-01T07:10:20;20.60;27.60
652;DHT22;310;48.490;9.200;2023-06-01T07:12:46;21.20;26.90
652;DHT22;310;48.490;9.200;2023-06-01T07:15:11;21.40;27.00
652;DHT22;310;48.490;9.200;2023-06-01T07:17:37;20.80;25.30
652;DHT22;310;48.490;9.200;2023-06-01T07:20:03;20.70;26.50
652;DHT22;310;48.490;9.200;2023-06-01T07:22:32;20.40;27.60
652;DHT22;310;48.490;9.200;2023-06-01T07:24:58;20.00;27.90
652;DHT22;310;48.490;9.200;2023-06-01T07:27:24;20.70;28.20
652;DHT22;310;48.490;9.200;2023-06-01T07:29:50;21.20;26.80
652;DHT22;310;48.490;9.200;2023-06-01T07:32:24;21.60;26.20
652;DHT22;310;48.490;9.200;2023-06-01T07:34:50;21.50;26.50
652;DHT22;310;48.490;9.200;2023-06-01T07:37:16;21.50;25.10
652;DHT22;310;48.490;9.200;2023-06-01T07:39:41;21.10;26.20
652;DHT22;310;48.490;9.200;2023-06-01T07:42:07;21.40;25.50
652;DHT22;310;48.490;9.200;2023-06-01T07:44:33;21.30;26.00
652;DHT22;310;48.490;9.200;2023-06-01T07:46:58;21.70;26.30
652;DHT22;310;48.490;9.200;2023-06-01T07:49:24;22.10;25.40
652;DHT22;310;48.490;9.200;2023-06-01T07:51:50;22.50;23.90
652;DHT22;310;48.490;9.200;2023-06-01T07:54:17;22.80;24.40
652;DHT22;310;48.490;9.200;2023-06-01T07:56:43;22.90;24.40
652;DHT22;310;48.490;9.200;2023-06-01T07:59:09;23.00;22.30
652;DHT22;310;48.490;9.200;2023-06-01T08:01:34;22.80;23.90
652;DHT22;310;48.490;9.200;2023-06-01T08:04:00;22.80;24.10
652;DHT22;310;48.490;9.200;2023-06-01T08:06:27;22.60;23.00
652;DHT22;310;48.490;9.200;2023-06-01T08:08:52;22.50;24.50
652;DHT22;310;48.490;9.200;2023-06-01T08:11:18;22.60;23.60
652;DHT22;310;48.490;9.200;2023-06-01T08:13:44;22.60;24.10
652;DHT22;310;48.490;9.200;2023-06-01T08:16:13;23.00;24.50
652;DHT22;310;48.490;9.200;2023-06-01T08:18:39;23.20;23.80
652;DHT22;310;48.490;9.200;2023-06-01T08:21:04;23.40;24.10
652;DHT22;310;48.490;9.200;2023-06-01T08:23:30;23.40;23.10
652;DHT22;310;48.490;9.200;2023-06-01T08:25:56;23.90;25.00
652;DHT22;310;48.490;9.200;2023-06-01T08:28:22;23.30;22.90
652;DHT22;310;48.490;9.200;2023-06-01T08:30:48;23.60;22.60
652;DHT22;310;48.490;9.200;2023-06-01T08:33:14;23.70;23.80
652;DHT22;310;48.490;9.200;2023-06-01T08:35:40;23.70;23.50
652;DHT22;310;48.490;9.200;2023-06-01T08:38:06;23.80;23.70
652;DHT22;310;48.490;9.200;2023-06-01T08:40:32;23.90;23.70
652;DHT22;310;48.490;9.200;2023-06-01T08:45:28;24.30;23.90
652;DHT22;310;48.490;9.200;2023-06-01T08:47:54;24.30;23.80
652;DHT22;310;48.490;9.200;2023-06-01T08:50:21;23.70;23.60
652;DHT22;310;48.490;9.200;2023-06-01T08:52:47;23.60;23.80
652;DHT22;310;48.490;9.200;2023-06-01T08:55:14;23.70;23.50
652;DHT22;310;48.490;9.200;2023-06-01T08:57:41;24.30;23.80
652;DHT22;310;48.490;9.200;2023-06-01T09:00:08;24.50;24.00
652;DHT22;310;48.490;9.200;2023-06-01T09:02:34;24.90;22.70
652;DHT22;310;48.490;9.200;2023-06-01T09:05:00;24.40;22.00
652;DHT22;310;48.490;9.200;2023-06-01T09:07:26;23.80;24.20
652;DHT22;310;48.490;9.200;2023-06-01T09:09:51;24.00;22.90
652;DHT22;310;48.490;9.200;2023-06-01T09:12:22;23.90;22.80
652;DHT22;310;48.490;9.200;2023-06-01T09:15:12;23.70;22.80
652;DHT22;310;48.490;9.200;2023-06-01T09:17:41;23.50;24.40
652;DHT22;310;48.490;9.200;2023-06-01T09:20:29;23.50;24.00
652;DHT22;310;48.490;9.200;2023-06-01T09:22:57;23.70;23.80
652;DHT22;310;48.490;9.200;2023-06-01T09:25:25;24.30;24.00
652;DHT22;310;48.490;9.200;2023-06-01T09:27:55;25.10;23.00
652;DHT22;310;48.490;9.200;2023-06-01T09:30:22;25.60;22.00
652;DHT22;310;48.490;9.200;2023-06-01T09:32:49;25.50;21.10
652;DHT22;310;48.490;9.200;2023-06-01T09:35:44;24.70;23.00
652;DHT22;310;48.490;9.200;2023-06-01T09:38:11;24.40;24.20
652;DHT22;310;48.490;9.200;2023-06-01T09:40:59;25.40;23.50
652;DHT22;310;48.490;9.200;2023-06-01T09:43:25;25.50;22.10
652;DHT22;310;48.490;9.200;2023-06-01T09:46:05;24.80;22.30
652;DHT22;310;48.490;9.200;2023-06-01T09:48:32;24.80;22.60
652;DHT22;310;48.490;9.200;2023-06-01T09:50:57;25.40;23.30
652;DHT22;310;48.490;9.200;2023-06-01T09:53:24;25.70;22.10
652;DHT22;310;48.490;9.200;2023-06-01T09:56:00;25.90;22.20
652;DHT22;310;48.490;9.200;2023-06-01T09:58:26;26.10;20.60
652;DHT22;310;48.490;9.200;2023-06-01T10:00:52;25.80;21.60
652;DHT22;310;48.490;9.200;2023-06-01T10:03:19;26.40;20.90
652;DHT22;310;48.490;9.200;2023-06-01T10:05:46;26.20;21.10
652;DHT22;310;48.490;9.200;2023-06-01T10:08:15;26.40;20.80
652;DHT22;310;48.490;9.200;2023-06-01T10:10:43;26.90;20.40
652;DHT22;310;48.490;9.200;2023-06-01T10:13:10;27.20;19.80
652;DHT22;310;48.490;9.200;2023-06-01T10:15:36;26.30;20.50
652;DHT22;310;48.490;9.200;2023-06-01T10:18:03;26.30;20.90
652;DHT22;310;48.490;9.200;2023-06-01T10:20:32;27.10;20.20
652;DHT22;310;48.490;9.200;2023-06-01T10:22:59;27.60;18.70
652;DHT22;310;48.490;9.200;2023-06-01T10:25:33;27.80;18.60
652;DHT22;310;48.490;9.200;2023-06-01T10:28:05;28.20;18.10
652;DHT22;310;48.490;9.200;2023-06-01T10:30:34;27.50;17.20
652;DHT22;310;48.490;9.200;2023-06-01T10:33:00;28.00;17.10
652;DHT22;310;48.490;9.200;2023-06-01T10:40:36;28.90;17.40
652;DHT22;310;48.490;9.200;2023-06-01T10:43:03;29.10;16.60
652;DHT22;310;48.490;9.200;2023-06-01T10:45:35;29.00;15.80
652;DHT22;310;48.490;9.200;2023-06-01T10:48:02;28.60;15.20
652;DHT22;310;48.490;9.200;2023-06-01T10:50:27;28.40;16.90
652;DHT22;310;48.490;9.200;2023-06-01T10:52:54;28.90;16.30
652;DHT22;310;48.490;9.200;2023-06-01T10:55:24;29.40;15.20
652;DHT22;310;48.490;9.200;2023-06-01T10:57:51;29.40;15.60
652;DHT22;310;48.490;9.200;2023-06-01T11:00:24;29.50;14.40
652;DHT22;310;48.490;9.200;2023-06-01T11:08:08;28.00;15.60
652;DHT22;310;48.490;9.200;2023-06-01T11:13:17;26.90;16.90
652;DHT22;310;48.490;9.200;2023-06-01T11:18:55;28.10;17.20
652;DHT22;310;48.490;9.200;2023-06-01T11:24:03;28.50;16.80
652;DHT22;310;48.490;9.200;2023-06-01T11:26:49;29.40;16.80
652;DHT22;310;48.490;9.200;2023-06-01T11:29:20;30.10;15.60
652;DHT22;310;48.490;9.200;2023-06-01T11:34:15;31.30;12.20
652;DHT22;310;48.490;9.200;2023-06-01T11:36:48;30.10;13.60
652;DHT22;310;48.490;9.200;2023-06-01T11:39:24;31.30;14.30
652;DHT22;310;48.490;9.200;2023-06-01T11:42:05;32.90;10.90
652;DHT22;310;48.490;9.200;2023-06-01T11:44:32;33.70;10.20
652;DHT22;310;48.490;9.200;2023-06-01T11:46:58;34.30;9.50
652;DHT22;310;48.490;9.200;2023-06-01T11:49:25;34.80;9.10
652;DHT22;310;48.490;9.200;2023-06-01T11:51:51;35.50;8.40
652;DHT22;310;48.490;9.200;2023-06-01T11:54:25;35.10;8.50
652;DHT22;310;48.490;9.200;2023-06-01T11:56:52;34.60;10.20
652;DHT22;310;48.490;9.200;2023-06-01T11:59:18;34.20;9.70
652;DHT22;310;48.490;9.200;2023-06-01T12:01:45;34.60;10.20
652;DHT22;310;48.490;9.200;2023-06-01T12:04:22;33.40;8.90
652;DHT22;310;48.490;9.200;2023-06-01T12:06:49;32.10;10.70
652;DHT22;310;48.490;9.200;2023-06-01T12:09:16;32.00;10.10
652;DHT22;310;48.490;9.200;2023-06-01T12:11:43;31.40;12.90
652;DHT22;310;48.490;9.200;2023-06-01T12:14:14;33.50;11.10
652;DHT22;310;48.490;9.200;2023-06-01T12:16:54;35.60;8.40
652;DHT22;310;48.490;9.200;2023-06-01T12:19:20;37.50;8.20
652;DHT22;310;48.490;9.200;2023-06-01T12:21:50;37.80;7.00
652;DHT22;310;48.490;9.200;2023-06-01T12:24:29;35.70;6.10
652;DHT22;310;48.490;9.200;2023-06-01T12:26:57;37.30;5.50
652;DHT22;310;48.490;9.200;2023-06-01T12:29:46;36.90;6.60
652;DHT22;310;48.490;9.200;2023-06-01T12:32:14;37.70;6.30
652;DHT22;310;48.490;9.200;2023-06-01T12:34:42;38.10;5.60
652;DHT22;310;48.490;9.200;2023-06-01T12:37:17;37.60;4.60
652;DHT22;310;48.490;9.200;2023-06-01T12:39:43;37.20;6.50
652;DHT22;310;48.490;9.200;2023-06-01T12:42:10;37.80;6.00
652;DHT22;310;48.490;9.200;2023-06-01T12:44:37;36.70;4.90
652;DHT22;310;48.490;9.200;2023-06-01T12:47:03;34.70;6.60
652;DHT22;310;48.490;9.200;2023-06-01T12:49:29;36.10;7.00
652;DHT22;310;48.490;9.200;2023-06-01T12:51:55;33.40;7.80
652;DHT22;310;48.490;9.200;2023-06-01T12:54:21;33.00;9.50
652;DHT22;310;48.490;9.200;2023-06-01T12:56:51;33.30;9.40
652;DHT22;310;48.490;9.200;2023-06-01T12:59:16;33.40;8.90
652;DHT22;310;48.490;9.200;2023-06-01T13:01:42;34.10;8.90
652;DHT22;310;48.490;9.200;2023-06-01T13:04:08;34.80;7.90
652;DHT22;310;48.490;9.200;2023-06-01T13:06:35;34.30;8.80
652;DHT22;310;48.490;9.200;2023-06-01T13:09:01;32.80;8.40
652;DHT22;310;48.490;9.200;2023-06-01T13:11:27;31.50;9.80
652;DHT22;310;48.490;9.200;2023-06-01T13:13:53;30.40;11.60
652;DHT22;310;48.490;9.200;2023-06-01T13:16:19;29.90;12.80
652;DHT22;310;48.490;9.200;2023-06-01T13:18:45;29.60;11.30
652;DHT22;310;48.490;9.200;2023-06-01T13:21:13;30.00;13.10
652;DHT22;310;48.490;9.200;2023-06-01T13:23:40;31.10;12.60
652;DHT22;310;48.490;9.200;2023-06-01T13:26:06;31.70;9.30
652;DHT22;310;48.490;9.200;2023-06-01T13:28:33;30.10;11.50
652;DHT22;310;48.490;9.200;2023-06-01T13:30:59;29.70;10.90
652;DHT22;310;48.490;9.200;2023-06-01T13:33:24;29.30;12.20
652;DHT22;310;48.490;9.200;2023-06-01T13:35:50;29.00;11.70
652;DHT22;310;48.490;9.200;2023-06-01T13:38:16;29.10;11.60
652;DHT22;310;48.490;9.200;2023-06-01T13:40:42;28.50;11.20
652;DHT22;310;48.490;9.200;2023-06-01T13:43:07;29.50;11.50
652;DHT22;310;48.490;9.200;2023-06-01T13:45:33;29.10;11.20
652;DHT22;310;48.490;9.200;2023-06-01T13:48:00;29.70;11.60
652;DHT22;310;48.490;9.200;2023-06-01T13:50:25;30.30;13.30
652;DHT22;310;48.490;9.200;2023-06-01T13:52:52;31.20;12.80
652;DHT22;310;48.490;9.200;2023-06-01T13:55:19;30.60;11.80
652;DHT22;310;48.490;9.200;2023-06-01T13:57:45;31.40;10.90
652;DHT22;310;48.490;9.200;2023-06-01T14:00:11;32.00;12.20
652;DHT22;310;48.490;9.200;2023-06-01T14:02:37;31.30;10.30
652;DHT22;310;48.490;9.200;2023-06-01T14:05:03;31.90;10.70
652;DHT22;310;48.490;9.200;2023-06-01T14:07:29;32.60;10.70
652;DHT22;310;48.490;9.200;2023-06-01T14:09:55;33.00;9.50
652;DHT22;310;48.490;9.200;2023-06-01T14:12:20;32.90;9.60
652;DHT22;310;48.490;9.200;2023-06-01T14:14:46;32.60;7.90
652;DHT22;310;48.490;9.200;2023-06-01T14:17:12;31.40;8.80
652;DHT22;310;48.490;9.200;2023-06-01T14:19:37;32.10;8.80
652;DHT22;310;48.490;9.200;2023-06-01T14:22:03;31.30;9.30
652;DHT22;310;48.490;9.200;2023-06-01T14:24:29;31.10;9.20
652;DHT22;310;48.490;9.200;2023-06-01T14:26:55;29.50;10.40
652;DHT22;310;48.490;9.200;2023-06-01T14:29:21;29.80;11.60
652;DHT22;310;48.490;9.200;2023-06-01T14:31:46;31.10;10.60
652;DHT22;310;48.490;9.200;2023-06-01T14:34:12;32.00;10.40
652;DHT22;310;48.490;9.200;2023-06-01T14:36:38;32.50;8.00
652;DHT22;310;48.490;9.200;2023-06-01T14:39:03;32.90;9.20
652;DHT22;310;48.490;9.200;2023-06-01T14:41:30;32.90;8.30
652;DHT22;310;48.490;9.200;2023-06-01T14:43:55;33.30;7.30
652;DHT22;310;48.490;9.200;2023-06-01T14:46:21;33.60;7.20
652;DHT22;310;48.490;9.200;2023-06-01T14:48:47;33.50;6.70
652;DHT22;310;48.490;9.200;2023-06-01T14:51:12;32.00;7.40
652;DHT22;310;48.490;9.200;2023-06-01T14:53:38;32.10;8.30
652;DHT22;310;48.490;9.200;2023-06-01T14:56:05;32.40;8.10
652;DHT22;310;48.490;9.200;2023-06-01T14:58:31;31.30;9.00
652;DHT22;310;48.490;9.200;2023-06-01T15:00:56;32.00;11.40
652;DHT22;310;48.490;9.200;2023-06-01T15:03:23;32.00;9.20
652;DHT22;310;48.490;9.200;2023-06-01T15:05:49;31.30;9.50
652;DHT22;310;48.490;9.200;2023-06-01T15:08:15;31.00;9.60
652;DHT22;310;48.490;9.200;2023-06-01T15:10:41;31.40;12.00
652;DHT22;310;48.490;9.200;2023-06-01T15:13:06;31.70;11.90
652;DHT22;310;48.490;9.200;2023-06-01T15:15:32;32.10;12.30
652;DHT22;310;48.490;9.200;2023-06-01T15:17:57;31.70;9.50
652;DHT22;310;48.490;9.200;2023-06-01T15:20:23;31.30;8.60
652;DHT22;310;48.490;9.200;2023-06-01T15:22:49;30.30;9.70
652;DHT22;310;48.490;9.200;2023-06-01T15:25:14;30.00;9.50
652;DHT22;310;48.490;9.200;2023-06-01T15:27:40;30.40;9.70
652;DHT22;310;48.490;9.200;2023-06-01T15:30:06;30.60;10.40
652;DHT22;310;48.490;9.200;2023-06-01T15:32:32;31.40;10.80
652;DHT22;310;48.490;9.200;2023-06-01T15:34:57;31.50;10.30
652;DHT22;310;48.490;9.200;2023-06-01T15:37:23;31.80;11.70
652;DHT22;310;48.490;9.200;2023-06-01T15:39:49;31.90;10.10
652;DHT22;310;48.490;9.200;2023-06-01T15:42:14;32.00;9.70
652;DHT22;310;48.490;9.200;2023-06-01T15:44:42;32.10;10.50
652;DHT22;310;48.490;9.200;2023-06-01T15:47:09;31.90;10.00
652;DHT22;310;48.490;9.200;2023-06-01T15:49:35;32.00;9.90
652;DHT22;310;48.490;9.200;2023-06-01T15:52:01;30.60;10.10
652;DHT22;310;48.490;9.200;2023-06-01T15:54:31;30.20;11.10
652;DHT22;310;48.490;9.200;2023-06-01T15:56:57;30.80;11.90
652;DHT22;310;48.490;9.200;2023-06-01T15:59:22;31.30;10.90
652;DHT22;310;48.490;9.200;2023-06-01T16:01:48;31.40;12.20
652;DHT22;310;48.490;9.200;2023-06-01T16:04:13;31.50;10.60
652;DHT22;310;48.490;9.200;2023-06-01T16:06:40;31.60;10.40
652;DHT22;310;48.490;9.200;2023-06-01T16:09:05;31.60;10.10
652;DHT22;310;48.490;9.200;2023-06-01T16:11:31;31.50;10.30
652;DHT22;310;48.490;9.200;2023-06-01T16:13:56;31.60;10.40
652;DHT22;310;48.490;9.200;2023-06-01T16:16:22;31.70;9.80
652;DHT22;310;48.490;9.200;2023-06-01T16:18:48;31.70;10.50
652;DHT22;310;48.490;9.200;2023-06-01T16:21:13;31.30;10.40
652;DHT22;310;48.490;9.200;2023-06-01T16:23:39;31.40;10.40
652;DHT22;310;48.490;9.200;2023-06-01T16:26:05;30.80;10.00
652;DHT22;310;48.490;9.200;2023-06-01T16:28:31;30.10;11.50
652;DHT22;310;48.490;9.200;2023-06-01T16:30:57;30.20;11.70
652;DHT22;310;48.490;9.200;2023-06-01T16:33:22;30.00;11.20
652;DHT22;310;48.490;9.200;2023-06-01T16:35:48;29.70;12.30
652;DHT22;310;48.490;9.200;2023-06-01T16:38:14;30.40;11.70
652;DHT22;310;48.490;9.200;2023-06-01T16:40:39;30.60;11.80
652;DHT22;310;48.490;9.200;2023-06-01T16:43:05;30.60;11.80
652;DHT22;310;48.490;9.200;2023-06-01T16:45:30;30.80;11.90
652;DHT22;310;48.490;9.200;2023-06-01T16:47:56;31.00;12.00
652;DHT22;310;48.490;9.200;2023-06-01T16:50:21;29.90;11.20
652;DHT22;310;48.490;9.200;2023-06-01T16:52:47;30.10;13.10
652;DHT22;310;48.490;9.200;2023-06-01T16:55:13;30.20;12.10
652;DHT22;310;48.490;9.200;2023-06-01T16:57:38;30.40;12.10
652;DHT22;310;48.490;9.200;2023-06-01T17:00:04;30.10;10.40
652;DHT22;310;48.490;9.200;2023-06-01T17:02:31;29.60;12.10
652;DHT22;310;48.490;9.200;2023-06-01T17:04:57;29.90;11.80
652;DHT22;310;48.490;9.200;2023-06-01T17:07:23;29.80;11.30